createdAt,value
2023-01-25T00:00:24.432Z,103140.00
2023-01-25T00:02:54.329Z,103143.00
2023-01-25T00:05:24.238Z,103142.00
2023-01-25T00:07:56.668Z,103136.00
2023-01-25T00:10:26.727Z,103129.00
2023-01-25T00:12:56.608Z,103120.00
2023-01-25T00:15:26.532Z,103108.00
2023-01-25T00:17:56.369Z,103101.00
2023-01-25T00:20:26.209Z,103092.00
2023-01-25T00:22:58.655Z,103081.00
2023-01-25T00:25:28.596Z,103081.00
2023-01-25T00:27:58.454Z,103073.00
2023-01-25T00:30:28.294Z,103058.00
2023-01-25T00:33:05.912Z,103056.00
2023-01-25T00:35:37.427Z,103048.00
2023-01-25T00:38:29.689Z,103052.00
2023-01-25T00:41:01.312Z,103039.00
2023-01-25T00:43:31.187Z,103047.00
2023-01-25T00:46:03.969Z,103045.00
2023-01-25T00:48:33.853Z,103042.00
2023-01-25T00:51:03.932Z,103037.00
2023-01-25T00:53:36.652Z,103038.00
2023-01-25T00:56:07.340Z,103037.00
2023-01-25T00:58:37.220Z,103034.00
2023-01-25T01:01:07.465Z,103046.00
2023-01-25T01:03:37.357Z,103052.00
2023-01-25T01:06:11.217Z,103051.00
2023-01-25T01:08:45.605Z,103052.00
2023-01-25T01:11:16.455Z,103048.00
2023-01-25T01:13:46.567Z,103047.00
2023-01-25T01:16:16.789Z,103045.00
2023-01-25T01:18:48.496Z,103043.00
2023-01-25T01:21:18.500Z,103036.00
2023-01-25T01:23:51.082Z,103046.00
2023-01-25T01:26:22.116Z,103052.00
2023-01-25T01:28:52.299Z,103042.00
2023-01-25T01:31:25.340Z,103038.00
2023-01-25T01:33:58.389Z,103042.00
2023-01-25T01:36:31.249Z,103046.00
2023-01-25T01:39:03.858Z,103035.00
2023-01-25T01:41:33.744Z,103038.00
2023-01-25T01:44:03.667Z,103038.00
2023-01-25T01:46:38.288Z,103039.00
2023-01-25T01:49:13.282Z,103030.00
2023-01-25T01:51:49.819Z,103036.00
2023-01-25T01:54:28.339Z,103035.00
2023-01-25T01:57:01.598Z,103025.00
2023-01-25T01:59:37.037Z,103026.00
2023-01-25T02:02:07.800Z,103019.00
2023-01-25T02:04:38.449Z,103015.00
2023-01-25T02:07:13.290Z,103032.00
2023-01-25T02:09:47.230Z,103025.00
2023-01-25T02:12:17.740Z,103021.00
2023-01-25T02:14:53.184Z,103016.00
2023-01-25T02:17:29.581Z,103018.00
2023-01-25T02:20:06.915Z,103022.00
2023-01-25T02:22:49.214Z,103014.00
2023-01-25T02:25:22.128Z,103016.00
2023-01-25T02:27:57.515Z,103012.00
2023-01-25T02:30:27.357Z,103008.00
2023-01-25T02:32:57.214Z,103003.00
2023-01-25T02:35:41.310Z,103010.00
2023-01-25T02:38:15.147Z,103016.00
2023-01-25T02:40:52.404Z,103007.00
2023-01-25T02:43:22.739Z,103002.00
2023-01-25T02:45:59.564Z,103009.00
2023-01-25T02:48:29.442Z,103006.00
2023-01-25T02:50:59.277Z,102993.00
2023-01-25T02:53:29.157Z,102995.00
2023-01-25T02:56:01.586Z,102990.00
2023-01-25T02:58:31.457Z,102994.00
2023-01-25T03:01:02.129Z,102994.00
2023-01-25T03:03:32.053Z,102991.00
2023-01-25T03:06:01.920Z,102995.00
2023-01-25T03:08:31.775Z,102993.00
2023-01-25T03:11:07.380Z,102983.00
2023-01-25T03:13:38.763Z,102986.00
2023-01-25T03:16:11.877Z,102986.00
2023-01-25T03:18:43.486Z,102978.00
2023-01-25T03:21:16.507Z,102982.00
2023-01-25T03:23:48.102Z,102973.00
2023-01-25T03:26:23.986Z,102982.00
2023-01-25T03:28:53.919Z,102972.00
2023-01-25T03:31:24.829Z,102968.00
2023-01-25T03:33:55.120Z,102962.00
2023-01-25T03:36:25.008Z,102975.00
2023-01-25T03:38:54.901Z,102976.00
2023-01-25T03:41:27.448Z,102966.00
2023-01-25T03:43:57.301Z,102965.00
2023-01-25T03:46:27.239Z,102956.00
2023-01-25T03:48:57.104Z,102953.00
2023-01-25T03:51:26.981Z,102951.00
2023-01-25T03:53:56.851Z,102948.00
2023-01-25T03:56:29.407Z,102941.00
2023-01-25T03:58:59.275Z,102953.00
2023-01-25T04:01:29.241Z,102945.00
2023-01-25T04:03:59.232Z,102940.00
2023-01-25T04:06:29.205Z,102935.00
2023-01-25T04:08:59.107Z,102924.00
2023-01-25T04:11:31.559Z,102928.00
2023-01-25T04:14:01.521Z,102915.00
2023-01-25T04:16:31.646Z,102914.00
2023-01-25T04:19:01.589Z,102916.00
2023-01-25T04:21:31.468Z,102903.00
2023-01-25T04:24:01.356Z,102898.00
2023-01-25T04:26:33.845Z,102904.00
2023-01-25T04:29:03.702Z,102898.00
2023-01-25T04:31:33.706Z,102898.00
2023-01-25T04:34:03.615Z,102887.00
2023-01-25T04:36:33.476Z,102886.00
2023-01-25T04:39:03.317Z,102882.00
2023-01-25T04:41:35.972Z,102872.00
2023-01-25T04:44:05.821Z,102881.00
2023-01-25T04:46:35.853Z,102879.00
2023-01-25T04:49:05.972Z,102876.00
2023-01-25T04:51:35.849Z,102877.00
2023-01-25T04:54:05.853Z,102879.00
2023-01-25T04:56:38.331Z,102873.00
2023-01-25T04:59:08.192Z,102864.00
2023-01-25T05:01:38.141Z,102859.00
2023-01-25T05:04:08.025Z,102863.00
2023-01-25T05:06:37.882Z,102860.00
2023-01-25T05:09:07.743Z,102854.00
2023-01-25T05:11:40.176Z,102859.00
2023-01-25T05:14:10.089Z,102861.00
2023-01-25T05:16:39.974Z,102859.00
2023-01-25T05:19:11.496Z,102858.00
2023-01-25T05:21:53.997Z,102862.00
2023-01-25T05:24:23.947Z,102857.00
2023-01-25T05:27:07.937Z,102858.00
2023-01-25T05:29:40.246Z,102850.00
2023-01-25T05:32:13.415Z,102856.00
2023-01-25T05:34:43.753Z,102856.00
2023-01-25T05:37:16.752Z,102848.00
2023-01-25T05:39:46.699Z,102854.00
2023-01-25T05:42:21.456Z,102857.00
2023-01-25T05:44:51.169Z,102856.00
2023-01-25T05:47:21.546Z,102872.00
2023-01-25T05:49:51.619Z,102860.00
2023-01-25T05:52:21.603Z,102867.00
2023-01-25T05:54:52.145Z,102848.00
2023-01-25T05:57:24.638Z,102845.00
2023-01-25T05:59:54.517Z,102845.00
2023-01-25T06:02:24.574Z,102848.00
2023-01-25T06:04:54.465Z,102848.00
2023-01-25T06:07:24.819Z,102840.00
2023-01-25T06:09:54.704Z,102834.00
2023-01-25T06:12:29.367Z,102841.00
2023-01-25T06:14:59.786Z,102828.00
2023-01-25T06:17:29.673Z,102830.00
2023-01-25T06:19:59.540Z,102829.00
2023-01-25T06:22:29.466Z,102824.00
2023-01-25T06:24:59.310Z,102830.00
2023-01-25T06:27:31.772Z,102817.00
2023-01-25T06:30:01.826Z,102808.00
2023-01-25T06:32:35.265Z,102812.00
2023-01-25T06:35:05.240Z,102814.00
2023-01-25T06:37:35.246Z,102816.00
2023-01-25T06:40:05.155Z,102831.00
2023-01-25T06:42:37.613Z,102829.00
2023-01-25T06:45:09.831Z,102829.00
2023-01-25T06:47:39.852Z,102824.00
2023-01-25T06:50:11.987Z,102826.00
2023-01-25T06:52:42.239Z,102818.00
2023-01-25T06:55:14.073Z,102818.00
2023-01-25T06:57:46.525Z,102810.00
2023-01-25T07:00:19.484Z,102795.00
2023-01-25T07:02:49.444Z,102799.00
2023-01-25T07:05:19.585Z,102800.00
2023-01-25T07:07:50.434Z,102794.00
2023-01-25T07:10:20.604Z,102800.00
2023-01-25T07:12:53.045Z,102792.00
2023-01-25T07:15:23.791Z,102794.00
2023-01-25T07:17:53.671Z,102789.00
2023-01-25T07:20:23.496Z,102790.00
2023-01-25T07:22:53.371Z,102789.00
2023-01-25T07:25:23.205Z,102783.00
2023-01-25T07:27:55.653Z,102787.00
2023-01-25T07:30:25.500Z,102775.00
2023-01-25T07:32:55.661Z,102776.00
2023-01-25T07:35:25.545Z,102771.00
2023-01-25T07:37:55.407Z,102771.00
2023-01-25T07:40:25.682Z,102774.00
2023-01-25T07:42:58.628Z,102768.00
2023-01-25T07:45:30.502Z,102769.00
2023-01-25T07:48:01.518Z,102765.00
2023-01-25T07:50:31.725Z,102750.00
2023-01-25T07:53:01.560Z,102757.00
2023-01-25T07:55:31.520Z,102751.00
2023-01-25T07:58:04.024Z,102751.00
2023-01-25T08:00:34.021Z,102747.00
2023-01-25T08:03:03.867Z,102749.00
2023-01-25T08:05:33.705Z,102751.00
2023-01-25T08:08:03.659Z,102752.00
2023-01-25T08:10:33.524Z,102744.00
2023-01-25T08:13:06.932Z,102734.00
2023-01-25T08:15:36.987Z,102738.00
2023-01-25T08:18:07.221Z,102726.00
2023-01-25T08:20:37.752Z,102736.00
2023-01-25T08:23:07.670Z,102730.00
2023-01-25T08:25:37.511Z,102718.00
2023-01-25T08:28:10.007Z,102716.00
2023-01-25T08:30:52.043Z,102721.00
2023-01-25T08:33:26.220Z,102717.00
2023-01-25T08:35:59.281Z,102720.00
2023-01-25T08:38:29.258Z,102720.00
2023-01-25T08:40:59.131Z,102724.00
2023-01-25T08:43:31.588Z,102723.00
2023-01-25T08:46:01.759Z,102715.00
2023-01-25T08:48:31.759Z,102722.00
2023-01-25T08:51:01.688Z,102719.00
2023-01-25T08:53:32.181Z,102719.00
2023-01-25T08:56:07.344Z,102714.00
2023-01-25T08:58:42.488Z,102721.00
2023-01-25T09:01:15.368Z,102722.00
2023-01-25T09:03:49.493Z,102715.00
2023-01-25T09:06:21.351Z,102719.00
2023-01-25T09:08:51.862Z,102711.00
2023-01-25T09:11:24.378Z,102713.00
2023-01-25T09:13:56.831Z,102715.00
2023-01-25T09:16:30.882Z,102707.00
2023-01-25T09:19:03.363Z,102715.00
2023-01-25T09:21:34.489Z,102717.00
2023-01-25T09:24:06.510Z,102719.00
2023-01-25T09:26:38.705Z,102722.00
2023-01-25T09:29:15.153Z,102719.00
2023-01-25T09:31:46.213Z,102724.00
2023-01-25T09:34:18.207Z,102715.00
2023-01-25T09:36:48.090Z,102711.00
2023-01-25T09:39:17.942Z,102711.00
2023-01-25T09:42:25.948Z,102708.00
2023-01-25T09:45:18.306Z,102694.00
2023-01-25T09:47:54.116Z,102695.00
2023-01-25T09:51:00.474Z,102697.00
2023-01-25T09:53:36.681Z,102695.00
2023-01-25T09:56:13.227Z,102687.00
2023-01-25T09:58:47.290Z,102694.00
2023-01-25T10:01:45.698Z,102697.00
2023-01-25T10:04:20.468Z,102692.00
2023-01-25T10:07:00.845Z,102677.00
2023-01-25T10:09:40.363Z,102676.00
2023-01-25T10:12:22.553Z,102681.00
2023-01-25T10:14:53.134Z,102672.00
2023-01-25T10:17:34.576Z,102677.00
2023-01-25T10:20:20.971Z,102673.00
2023-01-25T10:22:57.416Z,102667.00
2023-01-25T10:25:39.367Z,102650.00
2023-01-25T10:28:29.868Z,102652.00
2023-01-25T10:31:04.998Z,102635.00
2023-01-25T10:33:43.519Z,102640.00
2023-01-25T10:36:17.297Z,102630.00
2023-01-25T10:38:49.667Z,102632.00
2023-01-25T10:41:27.035Z,102633.00
2023-01-25T10:44:21.771Z,102628.00
2023-01-25T10:46:59.252Z,102628.00
2023-01-25T10:49:43.722Z,102621.00
2023-01-25T10:52:19.983Z,102618.00
2023-01-25T10:54:51.501Z,102620.00
2023-01-25T10:57:24.154Z,102622.00
2023-01-25T10:59:55.823Z,102608.00
2023-01-25T11:02:43.987Z,102592.00
2023-01-25T11:05:36.417Z,102590.00
2023-01-25T11:08:27.029Z,102594.00
2023-01-25T11:10:57.401Z,102594.00
2023-01-25T11:13:29.968Z,102585.00
2023-01-25T11:16:29.946Z,102571.00
2023-01-25T11:19:02.783Z,102568.00
2023-01-25T11:21:36.847Z,102565.00
2023-01-25T11:24:20.644Z,102569.00
2023-01-25T11:26:50.800Z,102564.00
2023-01-25T11:29:22.119Z,102557.00
2023-01-25T11:31:55.151Z,102552.00
2023-01-25T11:34:29.963Z,102535.00
2023-01-25T11:37:21.672Z,102533.00
2023-01-25T11:40:02.437Z,102529.00
2023-01-25T11:42:42.816Z,102526.00
2023-01-25T11:45:39.597Z,102508.00
2023-01-25T11:48:47.759Z,102494.00
2023-01-25T11:51:28.831Z,102502.00
2023-01-25T11:54:45.389Z,102493.00
2023-01-25T11:57:48.192Z,102485.00
2023-01-25T12:00:36.277Z,102489.00
2023-01-25T12:03:46.614Z,102470.00
2023-01-25T12:06:22.156Z,102464.00
2023-01-25T12:09:38.445Z,102469.00
2023-01-25T12:12:27.593Z,102461.00
2023-01-25T12:15:37.278Z,102454.00
2023-01-25T12:18:42.420Z,102448.00
2023-01-25T12:21:31.393Z,102446.00
2023-01-25T12:24:18.218Z,102446.00
2023-01-25T12:26:56.388Z,102441.00
2023-01-25T12:29:39.481Z,102430.00
2023-01-25T12:32:15.694Z,102425.00
2023-01-25T12:34:51.190Z,102425.00
2023-01-25T12:37:24.706Z,102422.00
2023-01-25T12:40:01.190Z,102419.00
2023-01-25T12:42:38.615Z,102415.00
2023-01-25T12:45:18.394Z,102408.00
2023-01-25T12:47:52.546Z,102403.00
2023-01-25T12:50:30.847Z,102397.00
2023-01-25T12:53:08.075Z,102403.00
2023-01-25T12:55:37.925Z,102394.00
2023-01-25T12:58:23.830Z,102392.00
2023-01-25T13:01:12.781Z,102390.00
2023-01-25T13:04:01.266Z,102389.00
2023-01-25T13:06:39.902Z,102383.00
2023-01-25T13:09:18.176Z,102385.00
2023-01-25T13:11:50.076Z,102385.00
2023-01-25T13:14:34.226Z,102374.00
2023-01-25T13:17:38.263Z,102376.00
2023-01-25T13:20:50.718Z,102383.00
2023-01-25T13:23:34.827Z,102360.00
2023-01-25T13:26:41.873Z,102360.00
2023-01-25T13:29:59.852Z,102365.00
2023-01-25T13:33:08.996Z,102352.00
2023-01-25T13:35:45.064Z,102350.00
2023-01-25T13:38:36.671Z,102350.00
2023-01-25T13:41:17.146Z,102347.00
2023-01-25T13:44:16.227Z,102341.00
2023-01-25T13:46:46.095Z,102329.00
2023-01-25T13:49:27.588Z,102326.00
2023-01-25T13:51:57.572Z,102326.00
2023-01-25T13:54:27.477Z,102318.00
2023-01-25T13:57:08.983Z,102309.00
2023-01-25T13:59:38.854Z,102303.00
2023-01-25T14:02:16.537Z,102302.00
2023-01-25T14:04:51.568Z,102301.00
2023-01-25T14:07:25.099Z,102305.00
2023-01-25T14:09:56.038Z,102294.00
2023-01-25T14:12:38.100Z,102293.00
2023-01-25T14:15:27.110Z,102293.00
2023-01-25T14:18:17.621Z,102290.00
2023-01-25T14:20:53.693Z,102289.00
2023-01-25T14:23:28.725Z,102291.00
2023-01-25T14:26:02.180Z,102283.00
2023-01-25T14:28:33.028Z,102280.00
2023-01-25T14:31:06.125Z,102284.00
2023-01-25T14:33:44.531Z,102278.00
2023-01-25T14:36:25.263Z,102277.00
2023-01-25T14:38:56.317Z,102275.00
2023-01-25T14:41:31.784Z,102268.00
2023-01-25T14:44:06.115Z,102268.00
2023-01-25T14:46:38.244Z,102264.00
2023-01-25T14:49:30.212Z,102265.00
2023-01-25T14:52:08.655Z,102267.00
2023-01-25T14:54:40.905Z,102258.00
2023-01-25T14:57:32.547Z,102264.00
2023-01-25T15:00:04.862Z,102250.00
2023-01-25T15:02:41.942Z,102249.00
2023-01-25T15:05:24.105Z,102234.00
2023-01-25T15:07:58.654Z,102236.00
2023-01-25T15:10:30.577Z,102236.00
2023-01-25T15:13:13.598Z,102229.00
2023-01-25T15:15:58.002Z,102221.00
2023-01-25T15:18:44.945Z,102216.00
2023-01-25T15:21:16.860Z,102217.00
2023-01-25T15:23:50.825Z,102208.00
2023-01-25T15:26:23.797Z,102206.00
2023-01-25T15:28:55.867Z,102207.00
2023-01-25T15:31:29.936Z,102203.00
2023-01-25T15:34:01.547Z,102215.00
2023-01-25T15:36:32.825Z,102208.00
2023-01-25T15:39:05.249Z,102207.00
2023-01-25T15:41:35.121Z,102204.00
2023-01-25T15:44:05.759Z,102193.00
2023-01-25T15:46:36.038Z,102200.00
2023-01-25T15:49:08.752Z,102201.00
2023-01-25T15:51:38.651Z,102191.00
2023-01-25T15:54:11.672Z,102189.00
2023-01-25T15:56:44.993Z,102189.00
2023-01-25T15:59:20.326Z,102184.00
2023-01-25T16:01:50.623Z,102180.00
2023-01-25T16:04:20.850Z,102179.00
2023-01-25T16:06:53.560Z,102173.00
2023-01-25T16:09:29.896Z,102164.00
2023-01-25T16:12:02.490Z,102155.00
2023-01-25T16:14:33.267Z,102153.00
2023-01-25T16:17:06.393Z,102159.00
2023-01-25T16:19:37.370Z,102151.00
2023-01-25T16:22:07.352Z,102149.00
2023-01-25T16:24:39.831Z,102146.00
2023-01-25T16:27:20.244Z,102142.00
2023-01-25T16:29:50.357Z,102147.00
2023-01-25T16:32:20.265Z,102141.00
2023-01-25T16:34:50.597Z,102137.00
2023-01-25T16:37:21.172Z,102121.00
2023-01-25T16:39:53.975Z,102120.00
2023-01-25T16:42:24.347Z,102121.00
2023-01-25T16:44:54.258Z,102126.00
2023-01-25T16:47:25.458Z,102118.00
2023-01-25T16:49:56.005Z,102104.00
2023-01-25T16:52:26.026Z,102113.00
2023-01-25T16:54:59.604Z,102109.00
2023-01-25T16:57:29.474Z,102105.00
2023-01-25T17:00:00.590Z,102105.00
2023-01-25T17:02:31.458Z,102097.00
2023-01-25T17:05:01.334Z,102093.00
2023-01-25T17:07:31.248Z,102094.00
2023-01-25T17:10:04.126Z,102092.00
2023-01-25T17:12:34.381Z,102081.00
2023-01-25T17:15:04.317Z,102086.00
2023-01-25T17:17:34.215Z,102080.00
2023-01-25T17:20:04.902Z,102088.00
2023-01-25T17:22:37.616Z,102089.00
2023-01-25T17:25:11.045Z,102089.00
2023-01-25T17:27:42.553Z,102087.00
2023-01-25T17:30:14.757Z,102072.00
2023-01-25T17:32:44.795Z,102072.00
2023-01-25T17:35:14.689Z,102072.00
2023-01-25T17:37:44.564Z,102074.00
2023-01-25T17:40:17.660Z,102075.00
2023-01-25T17:42:47.509Z,102064.00
2023-01-25T17:45:17.382Z,102052.00
2023-01-25T17:47:47.280Z,102055.00
2023-01-25T17:50:17.343Z,102058.00
2023-01-25T17:52:47.440Z,102060.00
2023-01-25T17:55:20.237Z,102066.00
2023-01-25T17:57:51.283Z,102046.00
2023-01-25T18:00:22.507Z,102049.00
2023-01-25T18:02:53.787Z,102041.00
2023-01-25T18:05:24.478Z,102049.00
2023-01-25T18:07:54.377Z,102047.00
2023-01-25T18:10:26.909Z,102039.00
2023-01-25T18:13:04.474Z,102039.00
2023-01-25T18:15:35.718Z,102041.00
2023-01-25T18:18:05.631Z,102029.00
2023-01-25T18:20:35.475Z,102020.00
2023-01-25T18:23:05.333Z,102033.00
2023-01-25T18:25:39.356Z,102036.00
2023-01-25T18:28:10.120Z,102023.00
2023-01-25T18:30:45.888Z,102025.00
2023-01-25T18:33:15.791Z,102018.00
2023-01-25T18:35:47.888Z,102020.00
2023-01-25T18:38:18.012Z,102015.00
2023-01-25T18:40:50.433Z,102013.00
2023-01-25T18:43:20.397Z,102014.00
2023-01-25T18:45:57.148Z,102014.00
2023-01-25T18:48:30.488Z,102008.00
2023-01-25T18:51:01.299Z,102005.00
2023-01-25T18:53:34.237Z,101995.00
2023-01-25T18:56:10.179Z,102002.00
2023-01-25T18:58:40.904Z,102001.00
2023-01-25T19:01:14.196Z,101992.00
2023-01-25T19:03:44.849Z,101989.00
2023-01-25T19:06:15.283Z,101976.00
2023-01-25T19:08:49.731Z,101970.00
2023-01-25T19:11:24.416Z,101971.00
2023-01-25T19:13:54.096Z,101973.00
2023-01-25T19:16:26.921Z,101975.00
2023-01-25T19:18:57.918Z,101961.00
2023-01-25T19:21:29.637Z,101956.00
2023-01-25T19:24:00.092Z,101953.00
2023-01-25T19:26:32.785Z,101959.00
2023-01-25T19:29:02.739Z,101956.00
2023-01-25T19:31:33.684Z,101954.00
2023-01-25T19:34:06.430Z,101959.00
2023-01-25T19:36:38.841Z,101947.00
2023-01-25T19:39:11.523Z,101944.00
2023-01-25T19:41:44.078Z,101938.00
2023-01-25T19:44:16.468Z,101935.00
2023-01-25T19:46:46.657Z,101919.00
2023-01-25T19:49:17.181Z,101926.00
2023-01-25T19:51:52.977Z,101913.00
2023-01-25T19:54:24.304Z,101923.00
2023-01-25T19:56:58.508Z,101915.00
2023-01-25T19:59:29.094Z,101907.00
2023-01-25T20:01:59.088Z,101907.00
2023-01-25T20:04:29.009Z,101907.00
2023-01-25T20:06:59.030Z,101910.00
2023-01-25T20:09:29.150Z,101904.00
2023-01-25T20:12:03.114Z,101905.00
2023-01-25T20:14:33.091Z,101898.00
2023-01-25T20:17:02.952Z,101888.00
2023-01-25T20:19:35.153Z,101883.00
2023-01-25T20:22:05.129Z,101884.00
2023-01-25T20:24:35.045Z,101880.00
2023-01-25T20:27:07.622Z,101889.00
2023-01-25T20:29:37.737Z,101888.00
2023-01-25T20:32:09.653Z,101884.00
2023-01-25T20:34:39.830Z,101880.00
2023-01-25T20:37:09.675Z,101875.00
2023-01-25T20:39:39.529Z,101880.00
2023-01-25T20:42:12.000Z,101884.00
2023-01-25T20:44:41.849Z,101887.00
2023-01-25T20:47:11.745Z,101879.00
2023-01-25T20:49:41.598Z,101873.00
2023-01-25T20:52:13.796Z,101863.00
2023-01-25T20:54:43.964Z,101870.00
2023-01-25T20:57:16.444Z,101859.00
2023-01-25T20:59:46.274Z,101870.00
2023-01-25T21:02:16.215Z,101872.00
2023-01-25T21:04:46.087Z,101857.00
2023-01-25T21:07:15.920Z,101850.00
2023-01-25T21:09:45.769Z,101846.00
2023-01-25T21:12:18.261Z,101862.00
2023-01-25T21:14:48.489Z,101863.00
2023-01-25T21:17:18.341Z,101862.00
2023-01-25T21:19:48.189Z,101855.00
2023-01-25T21:22:18.648Z,101845.00
2023-01-25T21:24:48.628Z,101843.00
2023-01-25T21:27:21.087Z,101849.00
2023-01-25T21:29:50.943Z,101846.00
2023-01-25T21:32:20.875Z,101847.00
2023-01-25T21:34:50.691Z,101838.00
2023-01-25T21:37:22.507Z,101842.00
2023-01-25T21:39:52.353Z,101841.00
2023-01-25T21:42:24.797Z,101835.00
2023-01-25T21:45:07.149Z,101833.00
2023-01-25T21:47:37.041Z,101839.00
2023-01-25T21:50:20.037Z,101838.00
2023-01-25T21:52:49.902Z,101835.00
2023-01-25T21:55:19.917Z,101841.00
2023-01-25T21:57:52.372Z,101842.00
2023-01-25T22:00:23.431Z,101826.00
2023-01-25T22:02:54.216Z,101833.00
2023-01-25T22:05:24.114Z,101833.00
2023-01-25T22:07:53.973Z,101842.00
2023-01-25T22:10:24.426Z,101832.00
2023-01-25T22:12:56.842Z,101830.00
2023-01-25T22:15:26.859Z,101826.00
2023-01-25T22:17:56.748Z,101823.00
2023-01-25T22:20:26.590Z,101820.00
2023-01-25T22:22:56.432Z,101826.00
2023-01-25T22:25:26.303Z,101821.00
2023-01-25T22:28:03.121Z,101811.00
2023-01-25T22:30:33.005Z,101813.00
2023-01-25T22:33:02.873Z,101804.00
2023-01-25T22:35:32.737Z,101813.00
2023-01-25T22:38:02.602Z,101809.00
2023-01-25T22:40:32.605Z,101810.00
2023-01-25T22:43:05.041Z,101806.00
2023-01-25T22:45:34.882Z,101798.00
2023-01-25T22:48:04.730Z,101800.00
2023-01-25T22:50:34.599Z,101783.00
2023-01-25T22:53:04.437Z,101789.00
2023-01-25T22:55:34.282Z,101789.00
2023-01-25T22:58:06.805Z,101786.00
2023-01-25T23:00:36.673Z,101778.00
2023-01-25T23:03:07.200Z,101785.00
2023-01-25T23:05:37.101Z,101781.00
2023-01-25T23:08:07.490Z,101770.00
2023-01-25T23:10:37.353Z,101774.00
2023-01-25T23:13:09.761Z,101774.00
2023-01-25T23:15:40.320Z,101769.00
2023-01-25T23:18:24.901Z,101774.00
2023-01-25T23:20:55.068Z,101766.00
2023-01-25T23:23:24.927Z,101761.00
2023-01-25T23:25:54.806Z,101752.00
2023-01-25T23:28:27.303Z,101742.00
2023-01-25T23:31:11.186Z,101743.00
2023-01-25T23:33:41.183Z,101740.00
2023-01-25T23:36:12.462Z,101743.00
2023-01-25T23:38:46.143Z,101739.00
2023-01-25T23:41:16.478Z,101742.00
2023-01-25T23:43:50.151Z,101733.00
2023-01-25T23:46:20.865Z,101724.00
2023-01-25T23:48:51.080Z,101723.00
2023-01-25T23:51:22.437Z,101720.00
2023-01-25T23:53:53.518Z,101713.00
2023-01-25T23:56:24.689Z,101713.00
2023-01-25T23:58:57.137Z,101708.00
